createdAt,value
2022-11-24T00:00:31.211Z,4.72
2022-11-24T00:02:57.106Z,4.25
2022-11-24T00:05:23.235Z,4.35
2022-11-24T00:07:49.084Z,4.45
2022-11-24T00:10:15.060Z,4.88
2022-11-24T00:12:40.861Z,4.88
2022-11-24T00:15:06.883Z,4.32
2022-11-24T00:17:32.678Z,4.03
2022-11-24T00:19:58.484Z,3.88
2022-11-24T00:22:24.391Z,4.13
2022-11-24T00:24:50.511Z,3.78
2022-11-24T00:27:16.534Z,4.30
2022-11-24T00:29:42.609Z,4.55
2022-11-24T00:32:08.425Z,5.13
2022-11-24T00:34:34.407Z,4.00
2022-11-24T00:37:00.354Z,3.83
2022-11-24T00:39:26.188Z,4.68
2022-11-24T00:41:51.970Z,4.32
2022-11-24T00:44:18.014Z,3.97
2022-11-24T00:46:44.064Z,4.28
2022-11-24T00:49:09.989Z,4.40
2022-11-24T00:51:35.781Z,4.88
2022-11-24T00:54:01.813Z,4.32
2022-11-24T00:56:29.059Z,4.63
2022-11-24T00:58:55.254Z,4.18
2022-11-24T01:01:24.023Z,3.70
2022-11-24T01:03:50.723Z,3.75
2022-11-24T01:06:24.741Z,5.07
2022-11-24T01:08:50.846Z,4.25
2022-11-24T01:11:20.225Z,4.97
2022-11-24T01:13:48.477Z,3.75
2022-11-24T01:16:14.394Z,4.20
2022-11-24T01:18:40.588Z,4.07
2022-11-24T01:21:10.096Z,3.75
2022-11-24T01:23:36.491Z,5.25
2022-11-24T01:26:07.533Z,4.35
2022-11-24T01:28:33.799Z,3.97
2022-11-24T01:31:01.488Z,3.80
2022-11-24T01:33:27.648Z,4.25
2022-11-24T01:35:53.770Z,4.47
2022-11-24T01:38:20.114Z,4.40
2022-11-24T01:40:45.917Z,4.85
2022-11-24T01:43:20.970Z,4.53
2022-11-24T01:45:47.529Z,3.65
2022-11-24T01:48:28.990Z,4.28
2022-11-24T01:51:19.233Z,4.30
2022-11-24T01:53:50.791Z,3.60
2022-11-24T01:56:17.459Z,4.35
2022-11-24T01:58:45.830Z,5.93
2022-11-24T02:01:11.897Z,5.15
2022-11-24T02:03:40.789Z,4.93
2022-11-24T02:06:18.093Z,3.58
2022-11-24T02:08:58.474Z,4.25
2022-11-24T02:11:28.609Z,3.83
2022-11-24T02:13:56.391Z,3.55
2022-11-24T02:16:22.491Z,4.03
2022-11-24T02:18:48.451Z,4.28
2022-11-24T02:21:15.782Z,4.40
2022-11-24T02:24:07.437Z,3.97
2022-11-24T02:26:44.996Z,3.88
2022-11-24T02:29:12.196Z,4.80
2022-11-24T02:31:46.450Z,4.28
2022-11-24T02:34:12.273Z,3.90
2022-11-24T02:36:38.268Z,3.65
2022-11-24T02:39:10.056Z,5.43
2022-11-24T02:41:36.773Z,3.85
2022-11-24T02:44:03.029Z,4.05
2022-11-24T02:46:29.551Z,3.85
2022-11-24T02:48:55.574Z,3.67
2022-11-24T02:51:22.700Z,4.10
2022-11-24T02:53:49.134Z,3.58
2022-11-24T02:56:15.160Z,4.38
2022-11-24T02:58:42.365Z,4.63
2022-11-24T03:01:08.417Z,3.60
2022-11-24T03:03:35.075Z,3.90
2022-11-24T03:06:00.803Z,4.15
2022-11-24T03:08:26.602Z,4.10
2022-11-24T03:10:52.728Z,3.92
2022-11-24T03:13:18.573Z,3.47
2022-11-24T03:15:44.431Z,4.25
2022-11-24T03:18:10.372Z,4.32
2022-11-24T03:20:36.587Z,4.07
2022-11-24T03:23:02.356Z,3.90
2022-11-24T03:25:28.195Z,3.63
2022-11-24T03:27:57.077Z,3.63
2022-11-24T03:30:22.978Z,3.42
2022-11-24T03:32:51.819Z,4.95
2022-11-24T03:35:17.963Z,3.47
2022-11-24T03:37:43.756Z,4.40
2022-11-24T03:40:09.985Z,4.00
2022-11-24T03:42:35.814Z,4.93
2022-11-24T03:45:16.656Z,4.35
2022-11-24T03:47:51.017Z,4.07
2022-11-24T03:50:16.850Z,4.80
2022-11-24T03:52:42.662Z,4.30
2022-11-24T03:55:08.517Z,4.47
2022-11-24T03:57:34.300Z,3.97
2022-11-24T04:00:00.114Z,4.70
2022-11-24T04:02:25.938Z,3.38
2022-11-24T04:04:52.315Z,4.25
2022-11-24T04:07:18.223Z,4.00
2022-11-24T04:09:44.525Z,4.38
2022-11-24T04:12:28.958Z,4.38
2022-11-24T04:14:54.716Z,5.72
2022-11-24T04:17:20.459Z,4.45
2022-11-24T04:19:46.245Z,3.55
2022-11-24T04:22:12.068Z,4.75
2022-11-24T04:24:37.824Z,3.85
2022-11-24T04:27:03.646Z,4.20
2022-11-24T04:29:29.548Z,3.80
2022-11-24T04:31:55.419Z,3.85
2022-11-24T04:34:21.185Z,4.50
2022-11-24T04:36:47.034Z,5.05
2022-11-24T04:39:23.025Z,4.57
2022-11-24T04:41:52.389Z,4.78
2022-11-24T04:44:18.154Z,4.25
2022-11-24T04:46:43.990Z,4.60
2022-11-24T04:49:11.023Z,4.45
2022-11-24T04:51:38.143Z,3.13
2022-11-24T04:54:04.914Z,3.95
2022-11-24T04:56:30.815Z,4.00
2022-11-24T04:58:56.664Z,4.32
2022-11-24T05:01:22.852Z,5.55
2022-11-24T05:03:48.770Z,4.88
2022-11-24T05:06:14.538Z,3.50
2022-11-24T05:08:40.266Z,5.40
2022-11-24T05:11:07.174Z,4.57
2022-11-24T05:13:32.996Z,4.95
2022-11-24T05:15:59.526Z,5.00
2022-11-24T05:18:25.705Z,4.20
2022-11-24T05:20:51.491Z,4.45
2022-11-24T05:23:17.245Z,3.83
2022-11-24T05:25:47.426Z,3.70
2022-11-24T05:28:13.655Z,5.03
2022-11-24T05:30:39.857Z,4.70
2022-11-24T05:33:15.370Z,4.68
2022-11-24T05:35:41.373Z,4.57
2022-11-24T05:38:07.805Z,4.75
2022-11-24T05:40:33.623Z,4.22
2022-11-24T05:42:59.785Z,4.38
2022-11-24T05:45:25.589Z,4.53
2022-11-24T05:47:52.456Z,3.38
2022-11-24T05:50:21.021Z,4.95
2022-11-24T05:52:47.426Z,4.07
2022-11-24T05:55:18.682Z,4.72
2022-11-24T05:57:44.850Z,4.15
2022-11-24T06:00:11.365Z,4.63
2022-11-24T06:02:37.360Z,4.00
2022-11-24T06:05:03.486Z,5.93
2022-11-24T06:07:29.339Z,6.55
2022-11-24T06:09:55.138Z,3.80
2022-11-24T06:12:20.967Z,3.50
2022-11-24T06:14:47.046Z,4.45
2022-11-24T06:17:12.963Z,5.25
2022-11-24T06:19:41.863Z,3.78
2022-11-24T06:22:08.182Z,4.97
2022-11-24T06:24:34.185Z,4.28
2022-11-24T06:27:00.270Z,4.70
2022-11-24T06:29:26.179Z,4.43
2022-11-24T06:31:52.105Z,4.13
2022-11-24T06:34:18.094Z,4.25
2022-11-24T06:36:43.933Z,5.18
2022-11-24T06:39:10.136Z,3.92
2022-11-24T06:41:35.930Z,5.05
2022-11-24T06:44:03.307Z,4.55
2022-11-24T06:46:29.344Z,7.25
2022-11-24T06:48:55.214Z,5.53
2022-11-24T06:51:21.108Z,4.32
2022-11-24T06:53:47.251Z,4.78
2022-11-24T06:56:16.571Z,4.95
2022-11-24T06:58:47.702Z,4.60
2022-11-24T07:01:19.466Z,3.95
2022-11-24T07:03:45.813Z,4.10
2022-11-24T07:06:11.714Z,3.97
2022-11-24T07:08:37.522Z,5.07
2022-11-24T07:11:08.214Z,3.92
2022-11-24T07:13:34.144Z,3.88
2022-11-24T07:16:09.192Z,3.15
2022-11-24T07:18:35.063Z,3.78
2022-11-24T07:21:03.907Z,2.63
2022-11-24T07:23:32.681Z,3.17
2022-11-24T07:26:03.726Z,3.15
2022-11-24T07:28:32.888Z,2.30
2022-11-24T07:30:58.784Z,3.10
2022-11-24T07:33:25.374Z,1.85
2022-11-24T07:35:52.362Z,2.30
2022-11-24T07:38:18.559Z,1.83
2022-11-24T07:40:44.322Z,2.28
2022-11-24T07:43:13.488Z,2.08
2022-11-24T07:45:43.024Z,1.88
2022-11-24T07:48:10.985Z,2.22
2022-11-24T07:50:36.775Z,2.55
2022-11-24T07:53:03.329Z,2.75
2022-11-24T07:55:29.635Z,2.08
2022-11-24T07:57:59.060Z,2.38
2022-11-24T08:00:24.912Z,2.15
2022-11-24T08:02:50.646Z,2.00
2022-11-24T08:05:16.442Z,2.38
2022-11-24T08:07:42.313Z,2.40
2022-11-24T08:10:08.433Z,2.83
2022-11-24T08:12:34.341Z,3.75
2022-11-24T08:15:00.104Z,2.78
2022-11-24T08:17:28.000Z,2.30
2022-11-24T08:19:54.091Z,2.25
2022-11-24T08:22:19.897Z,2.95
2022-11-24T08:24:47.964Z,2.25
2022-11-24T08:27:14.982Z,2.15
2022-11-24T08:29:41.828Z,2.60
2022-11-24T08:32:08.727Z,2.08
2022-11-24T08:34:35.037Z,2.50
2022-11-24T08:37:03.479Z,2.85
2022-11-24T08:39:29.438Z,2.53
2022-11-24T08:41:55.330Z,2.45
2022-11-24T08:44:21.173Z,1.88
2022-11-24T08:46:47.063Z,2.20
2022-11-24T08:49:14.303Z,2.83
2022-11-24T08:51:40.396Z,2.45
2022-11-24T08:54:07.770Z,2.55
2022-11-24T08:56:33.611Z,2.42
2022-11-24T08:58:59.990Z,2.30
2022-11-24T09:01:26.802Z,2.30
2022-11-24T09:03:53.024Z,2.58
2022-11-24T09:06:24.920Z,2.60
2022-11-24T09:08:52.621Z,2.25
2022-11-24T09:11:18.904Z,2.90
2022-11-24T09:13:45.207Z,2.83
2022-11-24T09:16:17.731Z,3.15
2022-11-24T09:18:43.684Z,3.78
2022-11-24T09:21:18.822Z,3.10
2022-11-24T09:23:47.951Z,3.38
2022-11-24T09:26:16.744Z,3.45
2022-11-24T09:28:43.240Z,3.00
2022-11-24T09:31:11.359Z,2.50
2022-11-24T09:33:37.635Z,2.70
2022-11-24T09:36:04.624Z,3.38
2022-11-24T09:38:30.934Z,3.72
2022-11-24T09:41:27.543Z,4.00
2022-11-24T09:44:15.100Z,3.47
2022-11-24T09:46:47.643Z,4.10
2022-11-24T09:49:21.909Z,4.07
2022-11-24T09:51:52.056Z,3.72
2022-11-24T09:54:24.327Z,4.05
2022-11-24T09:56:51.637Z,5.05
2022-11-24T09:59:20.737Z,4.30
2022-11-24T10:01:48.284Z,5.03
2022-11-24T10:04:14.086Z,4.78
2022-11-24T10:07:04.752Z,5.50
2022-11-24T10:09:52.109Z,6.30
2022-11-24T10:12:29.924Z,5.93
2022-11-24T10:15:37.172Z,4.85
2022-11-24T10:18:20.769Z,5.78
2022-11-24T10:21:17.106Z,5.15
2022-11-24T10:23:48.679Z,5.05
2022-11-24T10:26:24.147Z,5.22
2022-11-24T10:28:55.462Z,5.22
2022-11-24T10:31:35.617Z,5.35
2022-11-24T10:34:16.093Z,5.95
2022-11-24T10:37:20.844Z,6.75
2022-11-24T10:40:04.990Z,6.30
2022-11-24T10:42:36.140Z,6.97
2022-11-24T10:45:14.348Z,6.43
2022-11-24T10:47:42.419Z,6.57
2022-11-24T10:50:47.074Z,7.45
2022-11-24T10:53:28.598Z,7.75
2022-11-24T10:55:54.860Z,7.68
2022-11-24T10:58:32.950Z,8.40
2022-11-24T11:01:12.297Z,8.80
2022-11-24T11:03:50.736Z,9.07
2022-11-24T11:06:28.189Z,7.60
2022-11-24T11:09:06.534Z,7.05
2022-11-24T11:11:33.948Z,7.03
2022-11-24T11:14:04.932Z,7.80
2022-11-24T11:16:50.430Z,7.22
2022-11-24T11:19:58.451Z,7.97
2022-11-24T11:22:32.500Z,7.00
2022-11-24T11:25:32.556Z,6.75
2022-11-24T11:28:25.919Z,7.28
2022-11-24T11:31:16.538Z,7.05
2022-11-24T11:34:06.220Z,7.03
2022-11-24T11:36:33.474Z,7.82
2022-11-24T11:39:00.086Z,6.97
2022-11-24T11:41:35.988Z,6.60
2022-11-24T11:44:25.011Z,5.50
2022-11-24T11:46:53.120Z,5.30
2022-11-24T11:49:19.032Z,5.70
2022-11-24T11:52:02.998Z,4.75
2022-11-24T11:54:41.115Z,5.10
2022-11-24T11:57:28.847Z,5.43
2022-11-24T12:00:03.025Z,4.78
2022-11-24T12:02:58.630Z,5.93
2022-11-24T12:05:41.370Z,5.15
2022-11-24T12:08:28.446Z,4.70
2022-11-24T12:11:07.348Z,4.82
2022-11-24T12:13:58.825Z,4.88
2022-11-24T12:16:39.986Z,4.95
2022-11-24T12:19:34.310Z,5.10
2022-11-24T12:22:12.906Z,5.45
2022-11-24T12:25:11.148Z,4.43
2022-11-24T12:27:58.573Z,3.85
2022-11-24T12:30:25.350Z,4.30
2022-11-24T12:33:28.285Z,4.15
2022-11-24T12:36:20.146Z,4.50
2022-11-24T12:39:14.945Z,3.53
2022-11-24T12:42:03.302Z,3.88
2022-11-24T12:44:45.037Z,4.00
2022-11-24T12:47:26.035Z,4.43
2022-11-24T12:50:07.452Z,2.97
2022-11-24T12:52:38.514Z,3.50
2022-11-24T12:55:11.853Z,3.55
2022-11-24T12:58:07.700Z,3.25
2022-11-24T13:00:42.335Z,3.13
2022-11-24T13:03:35.541Z,6.72
2022-11-24T13:06:23.988Z,3.42
2022-11-24T13:08:50.142Z,3.17
2022-11-24T13:11:22.362Z,2.97
2022-11-24T13:14:06.059Z,3.38
2022-11-24T13:16:37.110Z,3.63
2022-11-24T13:19:16.459Z,4.13
2022-11-24T13:21:42.631Z,3.05
2022-11-24T13:24:18.553Z,3.25
2022-11-24T13:26:47.972Z,3.60
2022-11-24T13:29:33.009Z,3.30
2022-11-24T13:32:01.690Z,3.67
2022-11-24T13:34:39.862Z,4.20
2022-11-24T13:37:32.043Z,3.88
2022-11-24T13:40:10.646Z,3.65
2022-11-24T13:42:55.513Z,3.45
2022-11-24T13:45:44.411Z,3.53
2022-11-24T13:48:19.467Z,4.07
2022-11-24T13:50:54.274Z,4.00
2022-11-24T13:53:40.232Z,3.60
2022-11-24T13:58:49.555Z,3.20
2022-11-24T14:01:28.896Z,3.80
2022-11-24T14:07:07.467Z,3.78
2022-11-24T14:09:43.823Z,3.42
2022-11-24T14:12:25.428Z,2.80
2022-11-24T14:14:56.111Z,3.50
2022-11-24T14:17:27.876Z,4.00
2022-11-24T14:19:57.655Z,3.78
2022-11-24T14:22:26.157Z,3.40
2022-11-24T14:25:00.101Z,3.63
2022-11-24T14:27:30.453Z,3.95
2022-11-24T14:30:02.143Z,3.97
2022-11-24T14:32:28.582Z,3.10
2022-11-24T14:34:54.884Z,2.97
2022-11-24T14:37:20.807Z,3.95
2022-11-24T14:39:46.736Z,3.72
2022-11-24T14:42:20.606Z,3.58
2022-11-24T14:44:48.669Z,3.95
2022-11-24T14:47:25.721Z,3.95
2022-11-24T14:49:56.745Z,4.25
2022-11-24T14:52:24.840Z,3.33
2022-11-24T14:54:58.985Z,3.00
2022-11-24T14:57:35.002Z,3.50
2022-11-24T15:00:19.418Z,4.25
2022-11-24T15:02:54.351Z,3.35
2022-11-24T15:05:23.216Z,4.10
2022-11-24T15:07:59.118Z,3.38
2022-11-24T15:10:36.667Z,4.90
2022-11-24T15:13:21.680Z,3.20
2022-11-24T15:16:02.439Z,4.03
2022-11-24T15:18:47.398Z,3.78
2022-11-24T15:21:18.982Z,4.13
2022-11-24T15:24:15.837Z,3.65
2022-11-24T15:26:42.791Z,3.75
2022-11-24T15:29:12.157Z,4.13
2022-11-24T15:31:39.858Z,3.38
2022-11-24T15:34:06.692Z,3.78
2022-11-24T15:36:32.812Z,4.45
2022-11-24T15:38:58.680Z,4.93
2022-11-24T15:41:30.292Z,5.70
2022-11-24T15:43:58.673Z,3.70
2022-11-24T15:46:29.836Z,3.97
2022-11-24T15:48:56.429Z,4.55
2022-11-24T15:51:25.539Z,3.90
2022-11-24T15:53:58.872Z,3.67
2022-11-24T15:56:32.945Z,5.53
2022-11-24T15:58:59.551Z,3.60
2022-11-24T16:01:31.605Z,4.43
2022-11-24T16:03:57.711Z,3.78
2022-11-24T16:06:25.363Z,3.63
2022-11-24T16:08:52.547Z,4.55
2022-11-24T16:11:18.418Z,3.63
2022-11-24T16:13:51.534Z,4.05
2022-11-24T16:16:20.047Z,4.60
2022-11-24T16:18:45.977Z,4.22
2022-11-24T16:21:11.797Z,4.20
2022-11-24T16:23:37.798Z,4.63
2022-11-24T16:26:04.265Z,3.60
2022-11-24T16:28:30.447Z,3.67
2022-11-24T16:30:56.391Z,5.18
2022-11-24T16:33:22.300Z,3.75
2022-11-24T16:35:48.421Z,4.20
2022-11-24T16:38:15.649Z,3.55
2022-11-24T16:40:41.435Z,3.65
2022-11-24T16:43:07.315Z,3.63
2022-11-24T16:45:33.156Z,3.42
2022-11-24T16:47:59.977Z,4.22
2022-11-24T16:50:26.250Z,3.60
2022-11-24T16:52:52.267Z,4.72
2022-11-24T16:55:18.298Z,4.10
2022-11-24T16:57:44.581Z,3.17
2022-11-24T17:00:11.272Z,3.55
2022-11-24T17:02:37.252Z,3.30
2022-11-24T17:05:03.230Z,4.30
2022-11-24T17:07:29.154Z,4.45
2022-11-24T17:09:55.319Z,3.13
2022-11-24T17:12:21.185Z,3.25
2022-11-24T17:15:09.459Z,3.22
2022-11-24T17:22:25.139Z,4.45
2022-11-24T17:24:51.030Z,4.13
2022-11-24T17:27:16.965Z,3.08
2022-11-24T17:29:42.954Z,3.97
2022-11-24T17:32:08.861Z,3.55
2022-11-24T17:34:35.138Z,3.20
2022-11-24T17:37:01.275Z,3.88
2022-11-24T17:39:27.560Z,4.07
2022-11-24T17:41:53.414Z,3.90
2022-11-24T17:44:19.248Z,3.17
2022-11-24T17:46:45.090Z,3.50
2022-11-24T17:49:12.460Z,4.38
2022-11-24T17:51:38.426Z,4.72
2022-11-24T17:54:31.265Z,6.85
2022-11-24T17:56:50.237Z,3.30
2022-11-24T17:59:16.198Z,3.42
2022-11-24T18:01:42.327Z,3.30
2022-11-24T18:04:08.235Z,3.22
2022-11-24T18:06:34.512Z,4.43
2022-11-24T18:09:00.374Z,3.70
2022-11-24T18:11:31.753Z,3.80
2022-11-24T18:14:02.166Z,3.97
2022-11-24T18:16:32.637Z,3.55
2022-11-24T18:19:08.485Z,4.32
2022-11-24T18:21:42.977Z,4.97
2022-11-24T18:24:10.571Z,3.45
2022-11-24T18:26:37.686Z,4.50
2022-11-24T18:29:04.063Z,4.07
2022-11-24T18:31:31.555Z,4.13
2022-11-24T18:33:59.014Z,4.60
2022-11-24T18:36:30.015Z,3.90
2022-11-24T18:38:59.587Z,4.32
2022-11-24T18:41:26.385Z,4.45
2022-11-24T18:43:52.278Z,4.10
2022-11-24T18:46:18.696Z,4.13
2022-11-24T18:48:45.300Z,4.13
2022-11-24T18:51:13.952Z,4.45
2022-11-24T18:53:44.679Z,4.10
2022-11-24T18:56:17.112Z,3.78
2022-11-24T18:58:44.067Z,4.03
2022-11-24T19:01:16.253Z,4.00
2022-11-24T19:03:48.301Z,4.38
2022-11-24T19:06:31.346Z,3.25
2022-11-24T19:08:58.727Z,3.53
2022-11-24T19:11:31.937Z,3.95
2022-11-24T19:13:57.805Z,4.20
2022-11-24T19:16:24.472Z,4.68
2022-11-24T19:18:54.247Z,3.55
2022-11-24T19:21:21.197Z,3.83
2022-11-24T19:23:47.095Z,3.67
2022-11-24T19:26:13.173Z,3.60
2022-11-24T19:28:39.259Z,3.55
2022-11-24T19:31:12.754Z,4.82
2022-11-24T19:33:39.060Z,3.95
2022-11-24T19:36:09.868Z,3.78
2022-11-24T19:38:36.077Z,4.53
2022-11-24T19:41:07.784Z,4.13
2022-11-24T19:43:34.308Z,5.25
2022-11-24T19:46:19.125Z,4.55
2022-11-24T19:48:49.287Z,3.92
2022-11-24T19:51:18.021Z,4.32
2022-11-24T19:53:44.276Z,3.97
2022-11-24T19:56:12.703Z,3.78
2022-11-24T19:58:39.680Z,3.78
2022-11-24T20:01:14.583Z,4.88
2022-11-24T20:03:41.569Z,3.53
2022-11-24T20:06:09.660Z,3.85
2022-11-24T20:08:37.228Z,4.50
2022-11-24T20:11:07.382Z,4.70
2022-11-24T20:13:34.520Z,3.47
2022-11-24T20:16:12.171Z,3.95
2022-11-24T20:18:43.064Z,4.28
2022-11-24T20:21:14.807Z,4.38
2022-11-24T20:23:41.359Z,3.95
2022-11-24T20:26:10.518Z,3.10
2022-11-24T20:28:36.624Z,3.28
2022-11-24T20:31:11.811Z,3.42
2022-11-24T20:33:38.423Z,3.08
2022-11-24T20:36:07.581Z,3.67
2022-11-24T20:38:34.115Z,4.05
2022-11-24T20:41:08.791Z,4.53
2022-11-24T20:43:36.341Z,4.60
2022-11-24T20:46:12.445Z,4.30
2022-11-24T20:48:38.691Z,4.70
2022-11-24T20:51:06.889Z,2.55
2022-11-24T20:53:33.269Z,3.22
2022-11-24T20:56:05.564Z,3.20
2022-11-24T20:58:33.932Z,3.20
2022-11-24T21:01:17.014Z,3.50
2022-11-24T21:03:43.797Z,3.22
2022-11-24T21:06:11.223Z,3.80
2022-11-24T21:08:38.417Z,3.70
2022-11-24T21:11:06.189Z,3.35
2022-11-24T21:13:33.774Z,3.63
2022-11-24T21:16:00.179Z,4.22
2022-11-24T21:18:26.294Z,3.45
2022-11-24T21:20:52.238Z,3.70
2022-11-24T21:23:19.797Z,4.25
2022-11-24T21:25:45.727Z,4.45
2022-11-24T21:28:12.583Z,3.25
2022-11-24T21:30:38.491Z,2.83
2022-11-24T21:33:05.270Z,3.97
2022-11-24T21:35:35.849Z,3.40
2022-11-24T21:38:02.608Z,3.80
2022-11-24T21:40:28.915Z,3.20
2022-11-24T21:42:57.728Z,3.30
2022-11-24T21:45:23.706Z,5.15
2022-11-24T21:47:49.559Z,3.58
2022-11-24T21:50:15.578Z,3.95
2022-11-24T21:52:41.426Z,4.47
2022-11-24T21:55:08.073Z,4.43
2022-11-24T21:57:33.979Z,3.65
2022-11-24T21:59:59.836Z,3.33
2022-11-24T22:02:25.706Z,3.88
2022-11-24T22:04:52.241Z,3.53
2022-11-24T22:07:18.069Z,4.05
2022-11-24T22:09:46.224Z,4.05
2022-11-24T22:12:12.014Z,3.90
2022-11-24T22:14:40.575Z,3.55
2022-11-24T22:17:06.731Z,2.95
2022-11-24T22:19:32.583Z,4.80
2022-11-24T22:21:58.398Z,3.58
2022-11-24T22:24:27.200Z,3.58
2022-11-24T22:26:54.040Z,4.40
2022-11-24T22:29:19.962Z,4.00
2022-11-24T22:31:46.203Z,3.45
2022-11-24T22:34:12.185Z,3.58
2022-11-24T22:36:38.058Z,4.97
2022-11-24T22:39:05.526Z,3.78
2022-11-24T22:41:33.430Z,3.65
2022-11-24T22:44:00.551Z,3.40
2022-11-24T22:46:28.419Z,4.25
2022-11-24T22:48:57.018Z,3.72
2022-11-24T22:51:26.377Z,2.75
2022-11-24T22:53:54.730Z,4.18
2022-11-24T22:56:21.513Z,4.07
2022-11-24T22:58:48.120Z,3.70
2022-11-24T23:01:17.087Z,3.67
2022-11-24T23:03:50.611Z,4.55
2022-11-24T23:06:27.808Z,3.47
2022-11-24T23:08:54.572Z,3.45
2022-11-24T23:11:32.699Z,3.42
2022-11-24T23:14:02.868Z,3.50
2022-11-24T23:16:29.702Z,4.68
2022-11-24T23:18:55.555Z,3.25
2022-11-24T23:21:24.977Z,3.42
2022-11-24T23:23:52.148Z,3.38
2022-11-24T23:26:23.899Z,4.50
2022-11-24T23:28:50.201Z,3.85
2022-11-24T23:31:20.694Z,3.55
2022-11-24T23:33:47.235Z,3.40
2022-11-24T23:36:15.572Z,3.47
2022-11-24T23:38:42.650Z,3.63
2022-11-24T23:41:11.474Z,3.50
2022-11-24T23:43:39.023Z,3.85
2022-11-24T23:46:07.589Z,2.50
2022-11-24T23:48:34.108Z,3.22
2022-11-24T23:51:09.193Z,3.17
2022-11-24T23:53:35.583Z,3.10
2022-11-24T23:56:02.174Z,2.67
2022-11-24T23:58:28.346Z,3.85
